Time;durP1;ratioP1;P1;durP2;ratioP2;P2;SDS_P1;SDS_P2;PMS_P1;PMS_P2;Temp;Humidity;BMP_temperature;BMP_pressure;BME280_temperature;BME280_humidity;BME280_pressure;Samples;Min_cycle;Max_cycle;Signal;HPM_P1;HPM_P2
2021/11/08 00:00:31;;;;;;;6.55;3.90;;;6.70;98.90;;;;;;5001516;28;20056;-67
2021/11/08 00:03:01;;;;;;;5.78;3.78;;;6.80;98.70;;;;;;4996765;28;20374;-67
2021/11/08 00:05:27;;;;;;;5.00;3.65;;;6.80;98.90;;;;;;5004495;28;20033;-67
2021/11/08 00:07:59;;;;;;;5.35;4.32;;;6.80;98.80;;;;;;5003435;28;20025;-67
2021/11/08 00:10:33;;;;;;;4.63;3.05;;;6.80;98.70;;;;;;5005271;28;20029;-68
2021/11/08 00:13:02;;;;;;;4.65;3.80;;;6.80;98.60;;;;;;5005568;28;20784;-67
2021/11/08 00:15:36;;;;;;;;;;;6.70;99.20;;;;;;5010898;28;20034;-68
2021/11/08 00:18:08;;;;;;;5.90;3.35;;;6.60;99.50;;;;;;5013780;28;19932;-67
2021/11/08 00:20:42;;;;;;;4.88;3.80;;;6.60;99.90;;;;;;5013081;28;20026;-68
2021/11/08 00:23:09;;;;;;;4.88;3.03;;;6.60;99.90;;;;;;5002245;28;20026;-68
2021/11/08 00:25:40;;;;;;;6.20;3.80;;;6.60;99.90;;;;;;5006827;28;20048;-67
2021/11/08 00:28:07;;;;;;;5.80;3.47;;;6.60;99.90;;;;;;5003270;28;20030;-67
2021/11/08 00:30:35;;;;;;;5.30;3.90;;;6.60;99.90;;;;;;5008537;28;20041;-67
2021/11/08 00:33:02;;;;;;;5.20;3.33;;;6.60;99.90;;;;;;5019994;28;20045;-68
2021/11/08 00:35:27;;;;;;;6.00;3.85;;;6.60;99.90;;;;;;5008314;28;20029;-67
2021/11/08 00:37:53;;;;;;;5.15;3.83;;;6.60;99.90;;;;;;5001898;28;20033;-68
2021/11/08 00:40:19;;;;;;;4.72;3.50;;;6.60;99.90;;;;;;5008748;28;20034;-68
2021/11/08 00:42:45;;;;;;;7.32;3.92;;;6.60;99.90;;;;;;5006296;28;20095;-67
2021/11/08 00:45:11;;;;;;;4.22;3.58;;;6.60;99.90;;;;;;5007951;28;20109;-68
2021/11/08 00:47:37;;;;;;;4.78;3.53;;;6.60;99.90;;;;;;5005569;28;20133;-67
2021/11/08 00:50:06;;;;;;;4.78;3.33;;;6.60;99.90;;;;;;5009648;28;20037;-68
2021/11/08 00:52:32;;;;;;;6.05;3.92;;;6.60;99.90;;;;;;5003485;28;20041;-67
2021/11/08 00:54:58;;;;;;;8.32;3.65;;;6.60;99.90;;;;;;5008096;28;20046;-68
2021/11/08 00:57:28;;;;;;;8.10;4.25;;;6.60;99.90;;;;;;5005230;28;20064;-68
2021/11/08 00:59:54;;;;;;;3.95;3.55;;;6.60;99.90;;;;;;5009570;28;20112;-67
2021/11/08 01:02:25;;;;;;;5.68;3.90;;;6.60;99.90;;;;;;5001744;28;20030;-67
2021/11/08 01:04:52;;;;;;;7.97;4.13;;;6.50;99.90;;;;;;5006424;28;20518;-67
2021/11/08 01:07:18;;;;;;;6.60;3.80;;;6.50;99.90;;;;;;5002239;28;20030;-67
2021/11/08 01:09:45;;;;;;;8.32;4.30;;;6.50;99.90;;;;;;5010386;28;20068;-68
2021/11/08 01:12:11;;;;;;;5.75;3.95;;;6.50;99.90;;;;;;5009141;28;20426;-67
2021/11/08 01:14:38;;;;;;;6.18;4.40;;;6.50;99.90;;;;;;5006675;28;20115;-68
2021/11/08 01:17:04;;;;;;;7.35;4.15;;;6.50;99.90;;;;;;5003294;28;20030;-67
2021/11/08 01:19:31;;;;;;;5.00;4.03;;;6.50;99.90;;;;;;5008108;28;20063;-67
2021/11/08 01:24:56;;;;;;;7.55;4.68;;;6.50;99.90;;;;;;4992756;28;20140;-68
2021/11/08 01:30:27;;;;;;;6.55;3.92;;;6.50;99.90;;;;;;4990436;28;20041;-68
2021/11/08 01:33:07;;;;;;;6.50;4.03;;;6.50;99.90;;;;;;5005483;28;20028;-68
2021/11/08 01:35:42;;;;;;;7.30;4.30;;;6.50;99.90;;;;;;5005817;28;20113;-68
2021/11/08 01:38:23;;;;;;;5.45;3.90;;;6.50;99.90;;;;;;5020422;28;20026;-67
2021/11/08 01:40:50;;;;;;;7.35;4.80;;;6.50;99.90;;;;;;5002725;28;20136;-67
2021/11/08 01:43:15;;;;;;;6.55;3.80;;;6.50;99.90;;;;;;5006385;28;20080;-67
2021/11/08 01:45:41;;;;;;;6.07;4.07;;;6.50;99.90;;;;;;5007807;28;20422;-67
2021/11/08 01:48:08;;;;;;;5.63;3.95;;;6.50;99.90;;;;;;5006083;28;20108;-68
2021/11/08 01:50:35;;;;;;;5.90;4.07;;;6.50;99.90;;;;;;5005764;28;20065;-67
2021/11/08 01:53:01;;;;;;;7.80;4.55;;;6.40;99.90;;;;;;5003357;28;20120;-67
2021/11/08 01:55:28;;;;;;;5.57;4.22;;;6.40;99.90;;;;;;5007861;28;20056;-67
2021/11/08 01:57:54;;;;;;;5.93;4.05;;;6.30;99.90;;;;;;4999885;28;20029;-67
2021/11/08 02:00:21;;;;;;;5.28;4.05;;;6.40;99.90;;;;;;5000131;28;20037;-67
2021/11/08 02:02:47;;;;;;;6.90;3.90;;;6.40;99.90;;;;;;5000412;28;20099;-67
2021/11/08 02:05:14;;;;;;;5.25;3.75;;;6.40;99.90;;;;;;5005465;28;20104;-68
2021/11/08 02:07:40;;;;;;;7.68;4.20;;;6.40;99.90;;;;;;5002571;28;20042;-67
2021/11/08 02:10:09;;;;;;;7.32;4.35;;;6.40;99.90;;;;;;5008023;28;20022;-67
2021/11/08 02:12:35;;;;;;;4.60;3.70;;;6.40;99.90;;;;;;5003695;28;20026;-67
2021/11/08 02:15:03;;;;;;;5.93;3.92;;;6.50;99.90;;;;;;5001861;28;20034;-68
2021/11/08 02:17:29;;;;;;;7.63;4.13;;;6.50;99.90;;;;;;5003643;28;20026;-68
2021/11/08 02:19:56;;;;;;;5.63;3.88;;;6.50;99.90;;;;;;5022552;28;20030;-67
2021/11/08 02:22:23;;;;;;;11.48;4.38;;;6.50;99.90;;;;;;5006187;28;20018;-67
2021/11/08 02:24:49;;;;;;;6.15;3.58;;;6.40;99.90;;;;;;5008595;28;20030;-68
2021/11/08 02:27:18;;;;;;;8.15;3.88;;;6.40;99.90;;;;;;5005201;28;20036;-68
2021/11/08 02:29:44;;;;;;;4.53;3.42;;;6.40;99.90;;;;;;5001023;28;20030;-67
2021/11/08 02:32:11;;;;;;;6.57;3.67;;;6.30;99.90;;;;;;5000898;28;20364;-68
2021/11/08 02:34:37;;;;;;;7.63;3.22;;;6.20;99.90;;;;;;5002881;28;20148;-68
2021/11/08 02:37:03;;;;;;;6.38;4.15;;;6.20;99.90;;;;;;5005236;28;20036;-68
2021/11/08 02:39:35;;;;;;;5.57;3.63;;;6.20;99.90;;;;;;5007806;28;20022;-67
2021/11/08 02:42:01;;;;;;;5.25;3.33;;;6.20;99.90;;;;;;5001000;28;20033;-67
2021/11/08 02:44:27;;;;;;;6.25;4.18;;;6.20;99.90;;;;;;5005111;28;20025;-68
2021/11/08 02:46:55;;;;;;;4.60;3.45;;;6.20;99.90;;;;;;5003224;28;20022;-67
2021/11/08 02:49:30;;;;;;;5.32;3.80;;;6.10;99.90;;;;;;5007252;28;20125;-68
2021/11/08 02:52:19;;;;;;;4.53;3.22;;;6.00;99.90;;;;;;5002197;28;20671;-68
2021/11/08 02:54:48;;;;;;;7.13;3.88;;;5.90;99.90;;;;;;5001548;28;20038;-67
2021/11/08 02:57:14;;;;;;;7.03;3.25;;;5.70;99.90;;;;;;5004711;28;20064;-67
2021/11/08 02:59:40;;;;;;;6.82;3.78;;;5.70;99.90;;;;;;5002567;28;20030;-67
2021/11/08 03:02:08;;;;;;;5.25;3.15;;;5.70;99.90;;;;;;5002204;28;20515;-67
2021/11/08 03:04:43;;;;;;;6.03;3.43;;;5.80;99.90;;;;;;5005001;28;20025;-67
2021/11/08 03:07:10;;;;;;;4.43;3.15;;;5.80;99.90;;;;;;5003500;28;20067;-67
2021/11/08 03:09:46;;;;;;;4.10;3.35;;;5.70;99.90;;;;;;5000014;28;20387;-67
2021/11/08 03:12:17;;;;;;;6.15;2.97;;;5.60;99.90;;;;;;5001535;28;20041;-67
2021/11/08 03:14:59;;;;;;;5.28;3.83;;;5.60;99.90;;;;;;5000815;28;20030;-68
2021/11/08 03:17:30;;;;;;;5.97;3.72;;;5.40;99.90;;;;;;5002037;28;20026;-67
2021/11/08 03:19:56;;;;;;;6.35;3.00;;;5.30;99.90;;;;;;5002229;28;20030;-67
2021/11/08 03:22:26;;;;;;;3.40;2.97;;;5.30;99.90;;;;;;5005397;28;20736;-67
2021/11/08 03:29:56;;;;;;;3.38;2.83;;;5.00;99.10;;;;;;5002080;28;20037;-67
2021/11/08 03:32:23;;;;;;;3.47;2.97;;;5.00;99.30;;;;;;5004596;28;20034;-68
2021/11/08 03:35:01;;;;;;;3.50;3.13;;;4.90;99.90;;;;;;5002989;28;20125;-67
2021/11/08 03:37:28;;;;;;;3.92;3.53;;;4.80;99.90;;;;;;5001604;28;20124;-69
2021/11/08 03:39:54;;;;;;;3.95;2.90;;;4.70;99.90;;;;;;5000612;28;20041;-67
2021/11/08 03:42:20;;;;;;;4.18;3.20;;;4.80;99.90;;;;;;5000222;28;20029;-67
2021/11/08 03:44:47;;;;;;;5.07;3.42;;;4.90;99.90;;;;;;5004673;28;20486;-67
2021/11/08 03:47:13;;;;;;;6.72;3.40;;;4.90;99.90;;;;;;5011084;28;20030;-68
2021/11/08 03:49:39;;;;;;;4.93;3.15;;;4.90;99.90;;;;;;5006653;28;20029;-67
2021/11/08 03:52:05;;;;;;;5.28;3.17;;;5.00;99.90;;;;;;5006807;28;20049;-68
2021/11/08 03:54:31;;;;;;;5.32;3.05;;;5.00;99.90;;;;;;5004301;28;20513;-67
2021/11/08 03:56:57;;;;;;;4.00;3.05;;;5.00;99.90;;;;;;5024057;28;20140;-67
2021/11/08 03:59:23;;;;;;;4.25;2.83;;;5.00;99.90;;;;;;5005508;28;20494;-67
2021/11/08 04:01:49;;;;;;;4.28;3.35;;;5.00;99.90;;;;;;5001451;28;20069;-67
2021/11/08 04:04:15;;;;;;;3.17;2.83;;;5.00;99.90;;;;;;5009258;28;20239;-67
2021/11/08 04:06:41;;;;;;;5.35;3.75;;;4.90;99.90;;;;;;5021313;28;20120;-67
2021/11/08 04:09:12;;;;;;;6.82;3.78;;;4.80;99.90;;;;;;5006609;28;20044;-68
2021/11/08 04:11:43;;;;;;;5.18;3.40;;;4.80;99.90;;;;;;5021988;28;20025;-68
2021/11/08 04:14:10;;;;;;;4.30;3.63;;;4.90;99.90;;;;;;5006314;28;20125;-67
2021/11/08 04:16:39;;;;;;;5.22;3.42;;;4.90;99.90;;;;;;5003146;28;20052;-67
2021/11/08 04:19:05;;;;;;;5.93;3.92;;;4.90;99.90;;;;;;5006335;28;20117;-67
2021/11/08 04:21:33;;;;;;;4.57;3.38;;;4.90;99.90;;;;;;5004895;28;20112;-67
2021/11/08 04:23:59;;;;;;;4.50;3.00;;;4.90;99.90;;;;;;5005357;28;20034;-68
2021/11/08 04:26:28;;;;;;;3.42;3.08;;;4.90;99.90;;;;;;5002029;28;20026;-67
2021/11/08 04:29:00;;;;;;;6.05;3.13;;;4.70;99.90;;;;;;5002905;28;20060;-68
2021/11/08 04:31:28;;;;;;;3.22;2.92;;;4.70;99.90;;;;;;5006237;28;20046;-67
2021/11/08 04:34:02;;;;;;;3.65;2.47;;;4.60;99.60;;;;;;5002201;28;20033;-67
2021/11/08 04:44:08;;;;;;;4.82;3.22;;;4.40;99.50;;;;;;5007526;28;20513;-67
2021/11/08 04:46:53;;;;;;;4.55;3.58;;;4.50;99.40;;;;;;5003878;28;20051;-67
2021/11/08 04:55:13;;;;;;;6.57;3.88;;;4.20;99.90;;;;;;5002229;28;20076;-69
2021/11/08 05:22:16;;;;;;;6.50;2.97;;;3.60;98.60;;;;;;5005063;28;20235;-67
2021/11/08 05:30:07;;;;;;;4.75;2.95;;;3.40;99.60;;;;;;4982215;28;21596;-67
2021/11/08 05:32:36;;;;;;;3.47;2.70;;;3.40;99.90;;;;;;5006338;28;20461;-67
2021/11/08 05:35:04;;;;;;;5.50;3.80;;;3.40;98.00;;;;;;4998944;28;20096;-68
2021/11/08 05:37:29;;;;;;;8.82;4.57;;;3.30;98.90;;;;;;5004086;28;20737;-68
2021/11/08 05:40:03;;;;;;;5.90;3.47;;;3.10;99.90;;;;;;5002968;28;20038;-67
2021/11/08 05:42:29;;;;;;;4.20;3.28;;;3.00;99.90;;;;;;5005308;28;20025;-67
2021/11/08 05:44:55;;;;;;;4.45;2.70;;;3.00;99.90;;;;;;5006193;28;20036;-66
2021/11/08 05:47:20;;;;;;;5.07;3.10;;;3.10;99.90;;;;;;5004208;28;20457;-67
2021/11/08 05:49:46;;;;;;;4.05;2.80;;;3.10;99.90;;;;;;5003726;28;20081;-67
2021/11/08 05:52:15;;;;;;;3.00;2.72;;;3.00;99.90;;;;;;5019270;28;20087;-67
2021/11/08 05:54:42;;;;;;;5.53;3.13;;;3.00;99.90;;;;;;5004691;28;20037;-67
2021/11/08 06:51:11;;;;;;;5.38;3.60;;;2.90;99.90;;;;;;5005969;28;20056;-67
2021/11/08 06:53:37;;;;;;;6.82;3.90;;;2.90;99.90;;;;;;5004928;28;21492;-68
2021/11/08 06:56:03;;;;;;;5.78;4.18;;;2.90;99.90;;;;;;5004009;28;20160;-67
2021/11/08 06:58:30;;;;;;;5.30;3.65;;;2.90;99.90;;;;;;5008813;28;20034;-67
2021/11/08 07:00:56;;;;;;;3.47;2.70;;;2.90;99.90;;;;;;5012692;28;20040;-67
2021/11/08 07:03:22;;;;;;;2.75;2.50;;;2.90;99.90;;;;;;5004317;28;20021;-67
2021/11/08 07:05:47;;;;;;;5.18;3.22;;;2.90;99.90;;;;;;5007618;28;20418;-67
2021/11/08 07:08:14;;;;;;;4.40;3.08;;;2.90;99.90;;;;;;5002171;28;20029;-67
2021/11/08 07:10:40;;;;;;;4.72;2.97;;;2.90;99.90;;;;;;5002452;28;20044;-67
2021/11/08 07:13:07;;;;;;;11.48;3.65;;;2.90;99.90;;;;;;5004695;28;20105;-67
2021/11/08 07:15:34;;;;;;;33.15;4.82;;;2.90;99.90;;;;;;5000719;28;20065;-68
2021/11/08 07:18:00;;;;;;;11.95;4.60;;;2.90;99.90;;;;;;5004754;28;20026;-68
2021/11/08 07:20:25;;;;;;;58.10;6.15;;;2.90;99.90;;;;;;5001676;28;20049;-67
2021/11/08 07:22:52;;;;;;;5.07;3.47;;;3.00;99.90;;;;;;4999513;28;20442;-67
2021/11/08 07:25:18;;;;;;;5.78;3.72;;;3.00;99.90;;;;;;4990192;28;20030;-67
2021/11/08 07:27:44;;;;;;;8.15;3.97;;;3.10;99.90;;;;;;4993807;28;20026;-68
2021/11/08 07:30:11;;;;;;;5.38;3.33;;;3.10;99.90;;;;;;4990546;28;20124;-68
2021/11/08 07:32:36;;;;;;;5.43;3.53;;;3.10;99.90;;;;;;4988290;28;20037;-68
2021/11/08 07:35:03;;;;;;;8.23;4.15;;;3.20;99.90;;;;;;4990054;28;20395;-67
2021/11/08 07:37:28;;;;;;;10.88;4.43;;;3.20;99.90;;;;;;4995330;28;20030;-67
2021/11/08 07:39:54;;;;;;;6.63;4.40;;;3.10;99.90;;;;;;4989042;28;20036;-68
2021/11/08 07:42:19;;;;;;;6.35;4.07;;;3.10;99.90;;;;;;4992710;28;20080;-68
2021/11/08 07:44:45;;;;;;;4.35;3.83;;;3.20;99.90;;;;;;4993115;28;20072;-67
2021/11/08 07:47:11;;;;;;;4.40;3.95;;;3.20;99.90;;;;;;4991366;28;20030;-67
2021/11/08 07:49:37;;;;;;;7.05;4.60;;;3.20;99.90;;;;;;4991072;28;20105;-67
2021/11/08 07:52:04;;;;;;;7.60;4.22;;;3.30;99.90;;;;;;4991392;28;21309;-67
2021/11/08 07:54:31;;;;;;;6.28;4.47;;;3.30;99.90;;;;;;4992591;28;20515;-67
2021/11/08 07:56:58;;;;;;;10.43;4.32;;;3.40;99.90;;;;;;4987642;28;20123;-68
2021/11/08 07:59:24;;;;;;;5.75;3.78;;;3.50;99.90;;;;;;4992974;28;20030;-67
2021/11/08 08:01:49;;;;;;;7.20;4.07;;;3.50;99.90;;;;;;4994125;28;20053;-67
2021/11/08 08:04:16;;;;;;;7.00;4.47;;;3.60;99.90;;;;;;5006891;28;20034;-66
2021/11/08 08:06:43;;;;;;;5.88;4.10;;;3.60;99.90;;;;;;4996186;28;20145;-67
2021/11/08 08:09:09;;;;;;;6.40;4.35;;;3.70;99.90;;;;;;4995669;28;20111;-67
2021/11/08 08:11:35;;;;;;;8.57;4.85;;;3.80;99.90;;;;;;4994970;28;20034;-67
2021/11/08 08:14:01;;;;;;;7.22;4.45;;;3.90;99.90;;;;;;4994284;28;20036;-67
2021/11/08 08:16:27;;;;;;;6.50;3.90;;;3.90;99.90;;;;;;4998262;28;20061;-67
2021/11/08 08:18:54;;;;;;;7.90;5.35;;;3.90;99.90;;;;;;4998055;28;20101;-67
2021/11/08 08:21:20;;;;;;;6.38;4.72;;;4.00;99.90;;;;;;5005197;28;20037;-67
2021/11/08 08:23:53;;;;;;;8.15;4.20;;;4.00;99.90;;;;;;5005410;28;20021;-68
2021/11/08 08:26:20;;;;;;;5.82;3.80;;;4.10;99.90;;;;;;4999132;28;20026;-67
2021/11/08 08:28:46;;;;;;;5.85;3.90;;;4.10;99.90;;;;;;4998748;28;20493;-67
2021/11/08 08:31:12;;;;;;;5.47;3.75;;;4.20;99.90;;;;;;5006169;28;20037;-67
2021/11/08 08:33:38;;;;;;;7.20;4.45;;;4.20;99.90;;;;;;5007584;28;20026;-67
2021/11/08 08:36:05;;;;;;;9.10;4.53;;;4.30;99.90;;;;;;5000947;28;20091;-68
2021/11/08 08:38:32;;;;;;;7.03;4.95;;;4.30;99.90;;;;;;5016204;28;20030;-67
2021/11/08 08:40:58;;;;;;;6.55;4.25;;;4.40;99.90;;;;;;5001021;28;21059;-67
2021/11/08 08:43:26;;;;;;;6.95;4.05;;;4.40;99.90;;;;;;4997256;28;20038;-68
2021/11/08 08:45:53;;;;;;;9.77;4.38;;;4.40;99.90;;;;;;4997511;28;20041;-67
2021/11/08 08:48:19;;;;;;;10.38;5.10;;;4.50;99.90;;;;;;5005134;28;20406;-68
2021/11/08 08:50:45;;;;;;;7.05;4.50;;;4.60;99.90;;;;;;5016886;28;20033;-67
2021/11/08 08:53:12;;;;;;;6.50;3.55;;;4.60;99.90;;;;;;5004404;28;20048;-67
2021/11/08 08:55:40;;;;;;;5.97;4.72;;;4.70;99.90;;;;;;5005087;28;20148;-68
2021/11/08 08:58:06;;;;;;;8.23;4.63;;;4.80;99.90;;;;;;5000256;28;20017;-67
2021/11/08 09:00:34;;;;;;;5.80;3.92;;;4.90;99.90;;;;;;4997055;28;20495;-68
2021/11/08 09:02:59;;;;;;;7.85;4.78;;;4.90;99.90;;;;;;5008308;28;20077;-67
2021/11/08 09:05:26;;;;;;;6.40;4.13;;;5.00;99.90;;;;;;5002664;28;20025;-67
2021/11/08 09:07:53;;;;;;;6.45;4.40;;;5.00;99.90;;;;;;4997577;28;20037;-68
2021/11/08 09:10:21;;;;;;;8.98;4.70;;;5.10;99.90;;;;;;4998092;28;20076;-67
2021/11/08 09:12:47;;;;;;;7.63;4.80;;;5.20;99.90;;;;;;4999955;28;20029;-68
2021/11/08 09:15:13;;;;;;;10.10;4.68;;;5.20;99.90;;;;;;4994218;28;20026;-68
2021/11/08 09:17:39;;;;;;;12.43;4.72;;;5.30;99.90;;;;;;5003124;28;20932;-67
2021/11/08 09:20:05;;;;;;;10.18;4.45;;;5.30;99.90;;;;;;5001300;28;20191;-68
2021/11/08 09:22:31;;;;;;;11.65;4.97;;;5.40;99.90;;;;;;4997416;28;20049;-67
2021/11/08 09:24:57;;;;;;;9.20;4.70;;;5.50;99.90;;;;;;5000882;28;20026;-67
2021/11/08 09:27:22;;;;;;;7.63;3.72;;;5.60;99.90;;;;;;4999621;28;20402;-67
2021/11/08 09:29:48;;;;;;;10.05;4.20;;;5.60;99.90;;;;;;5007393;28;20068;-67
2021/11/08 09:32:14;;;;;;;7.88;4.80;;;5.70;99.90;;;;;;4988883;28;20068;-67
2021/11/08 09:34:46;;;;;;;7.30;4.60;;;5.70;99.90;;;;;;4992144;28;20410;-67
2021/11/08 09:37:15;;;;;;;7.88;4.18;;;5.70;99.90;;;;;;4998844;28;20489;-67
2021/11/08 09:39:41;;;;;;;8.45;4.05;;;5.70;99.90;;;;;;5017359;28;20026;-67
2021/11/08 09:42:10;;;;;;;7.78;4.28;;;5.80;99.90;;;;;;4992969;28;20030;-68
2021/11/08 09:44:36;;;;;;;;;;;5.90;99.90;;;;;;5002968;28;20096;-67
2021/11/08 09:47:03;;;;;;;7.53;3.80;;;5.90;99.90;;;;;;4990708;28;19925;-67
2021/11/08 09:49:30;;;;;;;6.53;3.35;;;6.00;99.90;;;;;;5012282;28;20080;-68
2021/11/08 09:51:57;;;;;;;10.40;3.10;;;6.00;99.90;;;;;;4994458;28;20053;-67
2021/11/08 09:54:30;;;;;;;5.28;3.03;;;6.10;99.90;;;;;;4996917;28;20071;-68
2021/11/08 09:57:00;;;;;;;7.95;4.32;;;6.10;98.70;;;;;;4997049;28;20072;-69
2021/11/08 09:59:29;;;;;;;5.03;3.15;;;6.10;98.90;;;;;;4998173;28;20034;-67
2021/11/08 10:01:56;;;;;;;8.23;3.92;;;6.10;99.70;;;;;;4990313;28;20073;-67
2021/11/08 10:04:23;;;;;;;8.25;3.10;;;6.20;96.90;;;;;;4992168;28;21700;-67
2021/11/08 10:06:50;;;;;;;6.25;2.45;;;6.20;98.70;;;;;;4996101;28;20087;-67
2021/11/08 10:09:19;;;;;;;10.00;3.15;;;6.20;98.40;;;;;;4997986;28;20434;-67
2021/11/08 10:11:48;;;;;;;8.35;2.80;;;6.20;98.20;;;;;;4999693;28;20434;-67
2021/11/08 10:14:15;;;;;;;4.03;3.10;;;6.20;98.40;;;;;;4998575;28;20033;-67
2021/11/08 10:16:41;;;;;;;11.57;2.63;;;6.30;98.80;;;;;;4999764;28;20058;-70
2021/11/08 10:19:10;;;;;;;6.30;2.88;;;6.30;98.60;;;;;;5008172;28;20171;-69
2021/11/08 10:21:47;;;;;;;11.25;2.95;;;6.40;98.80;;;;;;4992907;28;20107;-67
2021/11/08 10:24:18;;;;;;;6.10;3.28;;;6.40;96.90;;;;;;4994477;28;22157;-68
2021/11/08 10:26:45;;;;;;;6.30;2.60;;;6.40;95.70;;;;;;4995144;28;20417;-67
2021/11/08 10:29:18;;;;;;;7.85;2.00;;;6.50;95.60;;;;;;4994468;28;20525;-68
2021/11/08 10:31:47;;;;;;;6.78;2.10;;;6.50;94.90;;;;;;4994854;28;20128;-67
2021/11/08 10:34:14;;;;;;;8.00;2.53;;;6.50;95.10;;;;;;5006580;28;20032;-67
2021/11/08 10:36:40;;;;;;;9.18;2.88;;;6.60;95.50;;;;;;4994343;28;20030;-67
2021/11/08 10:39:09;;;;;;;13.10;3.00;;;6.60;96.40;;;;;;5003059;28;20025;-67
2021/11/08 10:41:38;;;;;;;6.22;2.72;;;6.60;95.40;;;;;;5013370;28;20030;-68
2021/11/08 10:44:16;;;;;;;3.55;2.50;;;6.70;95.70;;;;;;4993687;28;20668;-67
2021/11/08 10:46:44;;;;;;;6.82;2.53;;;6.80;95.70;;;;;;5005059;28;20053;-68
2021/11/08 10:49:14;;;;;;;7.97;2.63;;;6.70;96.00;;;;;;4996918;28;20058;-67
2021/11/08 10:51:43;;;;;;;4.93;2.55;;;6.70;96.40;;;;;;4997098;28;20569;-67
2021/11/08 10:54:12;;;;;;;7.20;2.40;;;6.70;97.40;;;;;;4992676;28;20033;-67
2021/11/08 10:56:42;;;;;;;5.90;2.67;;;6.60;96.80;;;;;;5019884;28;20770;-67
2021/11/08 10:59:17;;;;;;;5.30;2.80;;;6.60;98.10;;;;;;5000703;28;20029;-67
2021/11/08 11:01:52;;;;;;;6.60;3.75;;;6.60;97.90;;;;;;4999888;28;20139;-68
2021/11/08 11:04:45;;;;;;;8.32;3.30;;;6.70;97.80;;;;;;5007854;28;20034;-67
2021/11/08 11:07:43;;;;;;;4.80;2.88;;;6.60;97.80;;;;;;5004405;28;20033;-68
2021/11/08 11:10:12;;;;;;;6.88;2.90;;;6.60;98.10;;;;;;4981588;28;20236;-67
2021/11/08 11:12:42;;;;;;;7.25;3.15;;;6.60;98.00;;;;;;4996493;28;20040;-68
2021/11/08 11:15:12;;;;;;;7.97;3.05;;;6.70;96.70;;;;;;4998054;28;20087;-68
2021/11/08 11:17:43;;;;;;;8.07;2.95;;;6.70;96.00;;;;;;4994726;28;20021;-69
2021/11/08 11:20:13;;;;;;;7.75;3.20;;;6.70;96.20;;;;;;5000668;28;20057;-67
2021/11/08 11:22:43;;;;;;;9.52;3.35;;;6.70;96.10;;;;;;5000361;28;20025;-68
2021/11/08 11:25:12;;;;;;;4.97;2.40;;;6.70;96.60;;;;;;5004131;28;20038;-68
2021/11/08 11:27:48;;;;;;;6.22;2.92;;;6.70;96.50;;;;;;4995383;28;20080;-67
2021/11/08 11:30:28;;;;;;;10.32;3.38;;;6.80;95.80;;;;;;5001834;28;20708;-67
2021/11/08 11:33:07;;;;;;;6.25;3.53;;;6.80;94.90;;;;;;4998673;28;20075;-68
2021/11/08 11:35:44;;;;;;;9.88;3.33;;;6.90;95.70;;;;;;5007243;28;20135;-68
2021/11/08 11:38:22;;;;;;;6.95;3.70;;;7.00;94.60;;;;;;5005893;28;20022;-68
2021/11/08 11:41:15;;;;;;;8.98;3.95;;;7.00;94.10;;;;;;5004045;28;20129;-68
2021/11/08 11:43:44;;;;;;;12.98;4.00;;;7.10;93.10;;;;;;4989630;28;20073;-68
2021/11/08 11:46:25;;;;;;;9.63;3.97;;;7.10;93.00;;;;;;5003444;28;20030;-67
2021/11/08 11:48:52;;;;;;;7.65;3.70;;;7.30;92.40;;;;;;4996469;28;20080;-67
2021/11/08 11:51:25;;;;;;;12.30;3.30;;;7.40;90.90;;;;;;4995648;28;20042;-67
2021/11/08 11:53:52;;;;;;;5.75;2.58;;;7.50;89.10;;;;;;4994520;28;20065;-67
2021/11/08 11:56:19;;;;;;;9.70;3.08;;;7.50;90.00;;;;;;4990890;28;20033;-68
2021/11/08 11:58:46;;;;;;;6.75;3.30;;;7.60;86.90;;;;;;5007161;28;20022;-67
2021/11/08 12:01:15;;;;;;;9.75;3.58;;;7.60;87.00;;;;;;4987746;28;20488;-67
2021/11/08 12:03:41;;;;;;;14.23;3.30;;;7.60;90.60;;;;;;4989316;28;20026;-67
2021/11/08 12:06:11;;;;;;;5.93;3.00;;;7.70;89.40;;;;;;4992208;28;20038;-68
2021/11/08 12:08:39;;;;;;;4.70;3.08;;;7.70;89.60;;;;;;4994475;28;20048;-67
2021/11/08 12:11:07;;;;;;;6.10;2.67;;;7.60;89.30;;;;;;4995102;28;20102;-68
2021/11/08 12:13:39;;;;;;;4.68;2.30;;;7.70;86.10;;;;;;4994383;28;20045;-67
2021/11/08 12:16:18;;;;;;;5.38;2.08;;;7.70;83.20;;;;;;4993594;28;20042;-67
2021/11/08 12:18:46;;;;;;;;;;;7.80;83.30;;;;;;5008206;28;20842;-68
2021/11/08 12:21:28;;;;;;;4.82;2.10;;;7.90;83.80;;;;;;4994390;28;19919;-67
2021/11/08 12:23:57;;;;;;;7.00;1.90;;;7.90;82.90;;;;;;4991719;28;20990;-68
2021/11/08 12:26:27;;;;;;;;;;;7.90;80.60;;;;;;4990286;28;20030;-66
2021/11/08 12:29:13;;;;;;;4.03;1.52;;;7.80;78.50;;;;;;4994765;28;20015;-67
2021/11/08 12:31:39;;;;;;;1.73;1.63;;;7.80;78.60;;;;;;4992213;28;20057;-67
2021/11/08 12:34:08;;;;;;;4.40;1.65;;;7.80;78.90;;;;;;5003243;28;20029;-67
2021/11/08 12:36:35;;;;;;;6.35;1.75;;;7.80;78.90;;;;;;5021071;28;20038;-67
2021/11/08 12:39:08;;;;;;;4.88;2.10;;;7.80;76.40;;;;;;4996719;28;20095;-67
2021/11/08 12:41:44;;;;;;;9.40;2.10;;;7.80;77.60;;;;;;4991428;28;20022;-68
2021/11/08 12:44:11;;;;;;;2.63;1.77;;;7.80;80.70;;;;;;4993254;28;20489;-67
2021/11/08 12:46:45;;;;;;;4.45;2.05;;;7.90;79.80;;;;;;4992619;28;20038;-68
2021/11/08 12:49:20;;;;;;;5.03;2.13;;;7.80;79.20;;;;;;4993731;28;20080;-67
2021/11/08 12:51:51;;;;;;;7.63;1.90;;;7.90;78.60;;;;;;5010726;28;20506;-67
2021/11/08 12:54:17;;;;;;;5.28;2.22;;;7.90;77.80;;;;;;5010866;28;20551;-67
2021/11/08 12:56:44;;;;;;;4.07;2.20;;;7.80;78.20;;;;;;5000644;28;20084;-67
2021/11/08 12:59:21;;;;;;;5.00;1.77;;;8.00;80.50;;;;;;4995362;28;20054;-67
2021/11/08 13:01:49;;;;;;;6.78;2.47;;;8.00;77.50;;;;;;5000928;28;20065;-67
2021/11/08 13:04:17;;;;;;;7.45;2.25;;;8.00;80.30;;;;;;5014425;28;21735;-67
2021/11/08 13:06:45;;;;;;;9.05;3.15;;;8.00;79.20;;;;;;4996713;28;21677;-67
2021/11/08 13:09:19;;;;;;;2.88;1.70;;;8.00;81.50;;;;;;5010328;28;20133;-68
2021/11/08 13:11:51;;;;;;;7.38;2.42;;;8.10;79.30;;;;;;5020003;28;20368;-68
2021/11/08 13:14:34;;;;;;;2.85;2.20;;;8.20;80.80;;;;;;5007631;28;20057;-67
2021/11/08 13:17:09;;;;;;;9.40;2.30;;;8.30;79.60;;;;;;5001934;28;20045;-67
2021/11/08 13:19:42;;;;;;;6.05;2.47;;;8.30;78.20;;;;;;5010294;28;20022;-67
2021/11/08 13:22:31;;;;;;;10.50;2.20;;;8.30;79.60;;;;;;5011680;28;20038;-67
2021/11/08 13:25:24;;;;;;;8.63;2.40;;;8.40;79.70;;;;;;5004324;28;20853;-68
2021/11/08 13:27:53;;;;;;;4.70;2.30;;;8.40;84.30;;;;;;5008277;28;20474;-68
2021/11/08 13:30:29;;;;;;;5.70;2.33;;;8.50;82.80;;;;;;5007885;28;20036;-68
2021/11/08 13:32:54;;;;;;;6.32;2.40;;;8.40;82.10;;;;;;5006362;28;20427;-68
2021/11/08 13:35:26;;;;;;;7.20;2.17;;;8.50;83.50;;;;;;5008105;28;20030;-68
2021/11/08 13:38:19;;;;;;;5.70;2.42;;;8.40;82.60;;;;;;5006280;28;20418;-68
2021/11/08 13:40:52;;;;;;;8.73;2.15;;;8.30;81.60;;;;;;5006317;28;20152;-68
2021/11/08 13:43:24;;;;;;;6.68;2.20;;;8.30;81.90;;;;;;5005057;28;20105;-68
2021/11/08 13:45:56;;;;;;;8.65;2.30;;;8.20;80.00;;;;;;5006463;28;20943;-67
2021/11/08 13:48:26;;;;;;;11.60;2.85;;;8.20;82.60;;;;;;5006934;28;20522;-68
2021/11/08 13:50:54;;;;;;;7.25;2.13;;;8.20;82.40;;;;;;5004481;28;20529;-68
2021/11/08 13:53:35;;;;;;;9.40;3.35;;;8.20;82.30;;;;;;5007737;28;20041;-68
2021/11/08 13:56:08;;;;;;;6.22;2.30;;;8.20;83.30;;;;;;5001830;28;20045;-67
2021/11/08 13:58:36;;;;;;;9.80;2.75;;;8.20;84.30;;;;;;5010664;28;20434;-68
2021/11/08 14:01:08;;;;;;;4.73;2.50;;;8.20;85.90;;;;;;5002373;28;20034;-68
2021/11/08 14:03:43;;;;;;;7.13;2.40;;;8.10;85.00;;;;;;5006038;28;20030;-68
2021/11/08 14:06:09;;;;;;;9.63;2.47;;;8.10;85.20;;;;;;5005730;28;20065;-68
2021/11/08 14:08:45;;;;;;;5.75;2.40;;;8.10;85.10;;;;;;5008125;28;20049;-68
2021/11/08 14:11:11;;;;;;;2.80;2.17;;;8.00;86.00;;;;;;5005335;28;20026;-68
2021/11/08 14:13:40;;;;;;;6.25;2.45;;;8.00;86.40;;;;;;5019227;28;20037;-68
2021/11/08 14:16:10;;;;;;;8.30;2.83;;;8.00;86.00;;;;;;5005647;28;20084;-68
2021/11/08 14:18:36;;;;;;;7.40;2.33;;;7.90;86.50;;;;;;5003110;28;20026;-68
2021/11/08 14:21:12;;;;;;;6.07;2.67;;;7.90;87.70;;;;;;5020790;28;20030;-68
2021/11/08 14:23:40;;;;;;;8.13;2.95;;;8.30;89.20;;;;;;5006599;28;20026;-68
2021/11/08 14:26:14;;;;;;;3.75;2.78;;;8.60;88.30;;;;;;5008572;28;20574;-67
2021/11/08 14:28:41;;;;;;;5.65;2.72;;;8.50;86.10;;;;;;5003471;28;20034;-68
2021/11/08 14:31:29;;;;;;;6.93;2.50;;;8.60;86.60;;;;;;5006132;28;20145;-67
2021/11/08 14:33:59;;;;;;;8.88;3.10;;;8.60;85.30;;;;;;5007315;28;21580;-67
2021/11/08 14:36:33;;;;;;;4.40;3.65;;;8.60;85.60;;;;;;5007054;28;20971;-67
2021/11/08 14:39:01;;;;;;;7.43;2.33;;;8.30;83.10;;;;;;5003814;28;20136;-70
2021/11/08 14:41:33;;;;;;;7.60;2.58;;;8.20;84.80;;;;;;5005059;28;20109;-67
2021/11/08 14:44:10;;;;;;;6.93;2.42;;;8.00;84.60;;;;;;5006077;28;20049;-67
2021/11/08 14:46:40;;;;;;;7.65;2.17;;;7.80;86.00;;;;;;5003512;28;20041;-67
2021/11/08 14:49:08;;;;;;;13.13;2.55;;;7.70;86.90;;;;;;5010221;28;20040;-67
2021/11/08 14:51:34;;;;;;;5.93;3.00;;;7.70;87.90;;;;;;5004630;28;20052;-67
2021/11/08 14:54:03;;;;;;;4.95;2.80;;;7.70;87.60;;;;;;5006316;28;20281;-67
2021/11/08 14:56:32;;;;;;;4.40;2.38;;;7.70;86.90;;;;;;5005005;28;20084;-68